Aviation Digital Data Service (ADDS)

Output produced by METARs form (1112 UTC 22 January 2022)
found at http://aviationweather.gov/metar/data/
 
KBWI 220842Z 2209/2312 01006KT P6SM FEW035 FEW180 
     FM221000 36005KT P6SM FEW250 
     FM222200 VRB03KT P6SM FEW200 SCT250 
     FM231000 27003KT P6SM FEW140 FEW200
       
KSBY 220910Z 2209/2306 35010KT 6SM BR SCT050 OVC070 
     FM221000 36011KT P6SM BKN060 
     FM221600 01010KT P6SM SCT040